createdAt,value
2022-08-19T00:00:11.401Z,17.7
2022-08-19T00:10:11.932Z,17.6
2022-08-19T00:20:12.523Z,17.5
2022-08-19T00:30:13.519Z,17.5
2022-08-19T00:40:13.905Z,17.4
2022-08-19T00:50:14.598Z,17.2
2022-08-19T01:20:15.976Z,17
2022-08-19T01:40:17.385Z,16.9
2022-08-19T01:50:17.958Z,17
2022-08-19T02:00:18.908Z,16.9
2022-08-19T02:10:19.688Z,16.9
2022-08-19T02:20:20.481Z,16.8
2022-08-19T02:30:20.793Z,16.7
2022-08-19T02:40:21.795Z,16.6
2022-08-19T02:50:21.865Z,16.7
2022-08-19T03:00:22.556Z,16.6
2022-08-19T03:10:23.576Z,16.6
2022-08-19T03:20:23.727Z,16.5
2022-08-19T03:30:24.012Z,16.5
2022-08-19T03:40:24.671Z,16.4
2022-08-19T03:50:25.587Z,16.4
2022-08-19T04:00:25.773Z,16.3
2022-08-19T04:20:27.641Z,16.3
2022-08-19T04:50:28.940Z,16.3
2022-08-19T05:10:29.807Z,16.6
2022-08-19T05:30:46.334Z,17.1
2022-08-19T05:40:32.248Z,17.3
2022-08-19T06:00:33.035Z,17.9
2022-08-19T06:10:33.541Z,18.2
2022-08-19T06:20:52.540Z,18.7
2022-08-19T06:30:35.152Z,18.9
2022-08-19T06:40:35.851Z,19.4
2022-08-19T06:50:39.387Z,20.1
2022-08-19T07:00:37.115Z,20.5
2022-08-19T07:10:37.518Z,20.8
2022-08-19T07:20:38.539Z,21.1
2022-08-19T08:30:45.061Z,23
2022-08-19T08:40:44.248Z,23
2022-08-19T08:50:44.960Z,23.2
2022-08-19T09:00:45.841Z,23.2
2022-08-19T09:30:46.896Z,24.1
2022-08-19T09:40:47.169Z,25
2022-08-19T10:40:50.256Z,24.6
2022-08-19T10:50:50.348Z,24.5
2022-08-19T11:00:50.405Z,24.6
2022-08-19T11:10:50.894Z,25.2
2022-08-19T11:20:51.758Z,25.5
2022-08-19T11:30:52.031Z,25.9
2022-08-19T11:40:52.209Z,25.5
2022-08-19T11:50:52.504Z,26.4
2022-08-19T12:00:53.267Z,26.2
2022-08-19T12:11:00.956Z,26.4
2022-08-19T12:20:54.423Z,25.8
2022-08-19T12:31:02.216Z,26.2
2022-08-19T12:40:58.393Z,26.5
2022-08-19T12:50:56.387Z,26.6
2022-08-19T14:10:59.274Z,27.5
2022-08-19T14:20:59.844Z,27.6
2022-08-19T14:31:00.305Z,27.6
2022-08-19T15:21:03.436Z,27.6
2022-08-19T15:41:04.750Z,26.8
2022-08-19T16:01:05.380Z,26.4
2022-08-19T16:11:06.285Z,26.5
2022-08-19T16:21:06.706Z,26.4
2022-08-19T16:31:07.385Z,26.3
2022-08-19T16:41:07.976Z,26.3
2022-08-19T17:11:18.001Z,26.1
2022-08-19T17:21:11.153Z,25.8
2022-08-19T17:41:12.849Z,25.5
2022-08-19T17:51:13.431Z,25.4
2022-08-19T18:21:14.831Z,25.2
2022-08-19T18:31:14.947Z,25
2022-08-19T19:01:16.443Z,24.2
2022-08-19T19:11:24.041Z,23.8
2022-08-19T19:21:24.935Z,23.5
2022-08-19T19:31:18.453Z,23.2
2022-08-19T19:41:18.877Z,23
2022-08-19T19:51:26.869Z,22.7
2022-08-19T20:01:27.448Z,22.4
2022-08-19T20:11:27.907Z,22.3
2022-08-19T20:21:28.194Z,22.2
2022-08-19T20:31:21.813Z,22.1
2022-08-19T20:41:22.363Z,22.1
2022-08-19T20:51:22.936Z,22.1
2022-08-19T21:01:23.677Z,22
2022-08-19T21:11:24.012Z,22
2022-08-19T21:41:24.796Z,21.8
2022-08-19T21:51:25.010Z,21.6
2022-08-19T22:11:26.469Z,21.6
2022-08-19T22:21:31.369Z,21.5
2022-08-19T22:31:27.789Z,21.5
2022-08-19T23:11:30.209Z,21.2
2022-08-19T23:31:31.872Z,20.8
2022-08-19T23:51:32.549Z,19.4
